Albatross — 2FDE8 — position and weather

sailwx.info

Track history (hours):
 
Tides and Currents Weather Stations Pressure Air Temp Water Temp Dewpoint Dewpoint Depression Visibility Wind Speed Wind Dir Waves Ship Positions

Albatross

Last reported at 2017-Oct-05 07:30 UTC. Time now 2017-Nov-23 15:08 UTC.
Position N 50°51' W 001°19'.
Warning: this ship's position is 49 days out of date.

Length 16 m; draft 2 m.

Type: Pleasure craft. MMSI: 235090255.

Date/timePositionNaut miles runAvg speedWind from/ knotsBaromVisibWave heightAir tempDewpointWater temp
2017-Oct-05 07:30N 50°51' W 001°19'1 0.0
2017-Oct-03 14:00N 50°50' W 001°19'2 4.0
2017-Oct-03 13:30N 50°49' W 001°17'2 4.6
2017-Oct-03 13:00N 50°47' W 001°20'6 4.3
2017-Oct-03 11:38N 50°44' W 001°28'1 4.3
2017-Oct-03 11:25N 50°44' W 001°30'2 3.9
2017-Oct-03 11:00N 50°43' W 001°32'1 2.9
2017-Oct-03 10:30N 50°42' W 001°33'2 4.2
2017-Oct-03 10:00N 50°43' W 001°37'3 5.4
2017-Oct-03 09:30N 50°42' W 001°41'3 6.0
2017-Oct-03 09:00N 50°41' W 001°45'3 6.5
2017-Oct-03 08:30N 50°40' W 001°50'3 6.5
2017-Oct-03 08:00N 50°39' W 001°55'1 0.1
2017-Oct-02 15:24N 50°39' W 001°56'1 2.5
2017-Oct-02 15:00N 50°39' W 001°55'3 6.7
2017-Oct-02 14:30N 50°35' W 001°57'29 1.3
2017-Oct-01 15:39N 50°27' W 002°41'1 7.4
2017-Oct-01 15:30N 50°27' W 002°42'4 7.2
2017-Oct-01 15:00N 50°26' W 002°48'4 7.0
2017-Oct-01 14:30N 50°26' W 002°53'3 6.8
2017-Oct-01 14:01N 50°25' W 002°59'3 6.7
2017-Oct-01 13:30N 50°25' W 003°04'3 6.6
2017-Oct-01 13:00N 50°24' W 003°09'3 6.3
2017-Oct-01 12:30N 50°23' W 003°14'3 6.2
2017-Oct-01 12:01N 50°22' W 003°18'3 6.0
2017-Oct-01 11:30N 50°22' W 003°23'3 6.2
2017-Oct-01 11:01N 50°21' W 003°28'3 5.9
2017-Oct-01 10:30N 50°20' W 003°32'2 4.3
2017-Oct-01 10:00N 50°21' W 003°35'  
Track history (hours):
 
Tides and Currents Weather Stations Pressure Air Temp Water Temp Dewpoint Dewpoint Depression Visibility Wind Speed Wind Dir Waves Ship Positions

Albatross

Last reported at 2017-Oct-05 07:30 UTC. Time now 2017-Nov-23 15:08 UTC.
Position N 50°51' W 001°19'.
Warning: this ship's position is 49 days out of date.

Length 16 m; draft 2 m.

Type: Pleasure craft. MMSI: 235090255.

Date/timePositionNaut miles runAvg speedWind from/ knotsBaromVisibWave heightAir tempDewpointWater temp
2017-Oct-05 07:30N 50°51' W 001°19'1 0.0
2017-Oct-03 14:00N 50°50' W 001°19'2 4.0
2017-Oct-03 13:30N 50°49' W 001°17'2 4.6
2017-Oct-03 13:00N 50°47' W 001°20'6 4.3
2017-Oct-03 11:38N 50°44' W 001°28'1 4.3
2017-Oct-03 11:25N 50°44' W 001°30'2 3.9
2017-Oct-03 11:00N 50°43' W 001°32'1 2.9
2017-Oct-03 10:30N 50°42' W 001°33'2 4.2
2017-Oct-03 10:00N 50°43' W 001°37'3 5.4
2017-Oct-03 09:30N 50°42' W 001°41'3 6.0
2017-Oct-03 09:00N 50°41' W 001°45'3 6.5
2017-Oct-03 08:30N 50°40' W 001°50'3 6.5
2017-Oct-03 08:00N 50°39' W 001°55'1 0.1
2017-Oct-02 15:24N 50°39' W 001°56'1 2.5
2017-Oct-02 15:00N 50°39' W 001°55'3 6.7
2017-Oct-02 14:30N 50°35' W 001°57'29 1.3
2017-Oct-01 15:39N 50°27' W 002°41'1 7.4
2017-Oct-01 15:30N 50°27' W 002°42'4 7.2
2017-Oct-01 15:00N 50°26' W 002°48'4 7.0
2017-Oct-01 14:30N 50°26' W 002°53'3 6.8
2017-Oct-01 14:01N 50°25' W 002°59'3 6.7
2017-Oct-01 13:30N 50°25' W 003°04'3 6.6
2017-Oct-01 13:00N 50°24' W 003°09'3 6.3
2017-Oct-01 12:30N 50°23' W 003°14'3 6.2
2017-Oct-01 12:01N 50°22' W 003°18'3 6.0
2017-Oct-01 11:30N 50°22' W 003°23'3 6.2
2017-Oct-01 11:01N 50°21' W 003°28'3 5.9
2017-Oct-01 10:30N 50°20' W 003°32'2 4.3
2017-Oct-01 10:00N 50°21' W 003°35'  

Dump ship's entire track history